createdAt,value
2018-08-03T00:02:21.784Z,18.44
2018-08-03T00:17:25.978Z,18.50
2018-08-03T00:32:29.772Z,18.66
2018-08-03T00:47:33.963Z,18.20
2018-08-03T01:02:38.355Z,17.80
2018-08-03T01:17:42.719Z,17.65
2018-08-03T01:32:46.928Z,17.63
2018-08-03T01:47:51.182Z,17.60
2018-08-03T02:02:55.364Z,17.69
2018-08-03T02:17:59.719Z,17.43
2018-08-03T02:33:03.861Z,17.46
2018-08-03T02:48:08.058Z,17.80
2018-08-03T03:03:12.457Z,18.20
2018-08-03T03:18:17.033Z,18.46
2018-08-03T03:33:21.140Z,18.06
2018-08-03T03:48:25.328Z,18.20
2018-08-03T04:03:29.405Z,19.26
2018-08-03T04:18:33.615Z,20.72
2018-08-03T04:33:37.966Z,22.46
2018-08-03T04:48:42.156Z,23.46
2018-08-03T05:03:46.438Z,23.90
2018-08-03T05:18:50.287Z,24.94
2018-08-03T05:33:54.989Z,25.55
2018-08-03T05:48:58.777Z,25.49
2018-08-03T06:04:03.061Z,25.26
2018-08-03T06:19:07.502Z,23.96
2018-08-03T06:34:11.606Z,22.96
2018-08-03T06:49:15.512Z,23.54
2018-08-03T07:04:19.323Z,26.05
2018-08-03T07:19:23.115Z,26.53
2018-08-03T07:34:27.036Z,26.85
2018-08-03T07:49:30.995Z,25.95
2018-08-03T08:04:35.281Z,25.35
2018-08-03T08:19:39.108Z,23.94
2018-08-03T08:34:43.391Z,24.08
2018-08-03T08:49:47.181Z,25.76
2018-08-03T09:04:51.051Z,25.17
2018-08-03T09:19:54.876Z,26.24
2018-08-03T09:34:58.705Z,27.61
2018-08-03T09:50:02.784Z,26.72
2018-08-03T10:05:06.605Z,27.31
2018-08-03T10:20:10.547Z,27.88
2018-08-03T10:35:15.555Z,27.76
2018-08-03T10:50:19.551Z,28.05
2018-08-03T11:05:23.513Z,29.00
2018-08-03T11:20:27.937Z,29.12
2018-08-03T11:35:31.850Z,29.48
2018-08-03T11:50:35.681Z,27.74
2018-08-03T12:05:39.782Z,26.90
2018-08-03T12:20:45.561Z,26.61
2018-08-03T12:35:49.435Z,26.34
2018-08-03T12:50:53.467Z,25.70
2018-08-03T13:05:57.680Z,25.23
2018-08-03T13:21:02.235Z,25.59
2018-08-03T13:36:06.103Z,25.60
2018-08-03T13:51:09.919Z,25.99
2018-08-03T14:06:13.736Z,24.83
2018-08-03T14:21:17.550Z,25.37
2018-08-03T14:36:21.487Z,25.16
2018-08-03T14:51:25.306Z,24.87
2018-08-03T15:06:29.675Z,24.84
2018-08-03T15:21:34.056Z,24.84
2018-08-03T15:36:38.394Z,24.71
2018-08-03T15:51:42.257Z,24.55
2018-08-03T16:06:46.807Z,24.37
2018-08-03T16:21:50.980Z,24.28
2018-08-03T16:36:55.386Z,24.08
2018-08-03T16:51:59.846Z,23.86
2018-08-03T17:07:04.400Z,23.16
2018-08-03T17:22:08.691Z,22.86
2018-08-03T17:37:12.542Z,22.56
2018-08-03T17:52:16.752Z,22.20
2018-08-03T18:07:20.974Z,21.98
2018-08-03T18:22:25.344Z,21.71
2018-08-03T18:37:29.733Z,21.58
2018-08-03T18:52:34.045Z,21.38
2018-08-03T19:07:38.313Z,21.28
2018-08-03T19:22:42.578Z,21.20
2018-08-03T19:37:47.206Z,21.04
2018-08-03T19:52:51.657Z,20.96
2018-08-03T20:07:55.948Z,20.97
2018-08-03T20:23:00.262Z,21.07
2018-08-03T20:38:04.524Z,21.06
2018-08-03T20:53:09.053Z,20.99
2018-08-03T21:08:13.243Z,20.96
2018-08-03T21:23:17.655Z,20.75
2018-08-03T21:38:21.821Z,20.54
2018-08-03T21:53:26.198Z,20.13
2018-08-03T22:08:30.253Z,19.75
2018-08-03T22:23:34.488Z,19.54
2018-08-03T22:38:38.881Z,19.25
2018-08-03T22:53:43.320Z,19.31
2018-08-03T23:08:47.627Z,19.30
2018-08-03T23:23:51.958Z,19.22
2018-08-03T23:38:56.124Z,18.74
2018-08-03T23:54:00.322Z,18.78
